sensor_id;sensor_type;location;lat;lon;timestamp;temperature;humidity
33841;DHT22;20142;28.494;-16.312;2023-08-12T00:04:00;27.30;60.50
33841;DHT22;20142;28.494;-16.312;2023-08-12T00:09:01;27.40;60.70
33841;DHT22;20142;28.494;-16.312;2023-08-12T00:14:05;27.40;60.80
33841;DHT22;20142;28.494;-16.312;2023-08-12T00:19:06;27.50;60.90
33841;DHT22;20142;28.494;-16.312;2023-08-12T00:24:09;27.30;60.90
33841;DHT22;20142;28.494;-16.312;2023-08-12T00:29:11;27.30;61.60
33841;DHT22;20142;28.494;-16.312;2023-08-12T00:34:12;27.20;61.90
33841;DHT22;20142;28.494;-16.312;2023-08-12T00:39:14;26.90;63.00
33841;DHT22;20142;28.494;-16.312;2023-08-12T00:44:16;26.90;64.00
33841;DHT22;20142;28.494;-16.312;2023-08-12T00:49:18;27.00;64.20
33841;DHT22;20142;28.494;-16.312;2023-08-12T00:54:21;26.80;64.20
33841;DHT22;20142;28.494;-16.312;2023-08-12T00:59:24;26.70;65.10
33841;DHT22;20142;28.494;-16.312;2023-08-12T01:04:27;26.60;65.70
33841;DHT22;20142;28.494;-16.312;2023-08-12T01:09:29;26.60;65.80
33841;DHT22;20142;28.494;-16.312;2023-08-12T01:14:49;26.70;66.50
33841;DHT22;20142;28.494;-16.312;2023-08-12T01:19:56;26.80;66.40
33841;DHT22;20142;28.494;-16.312;2023-08-12T01:24:58;26.80;66.70
33841;DHT22;20142;28.494;-16.312;2023-08-12T01:29:59;26.80;66.50
33841;DHT22;20142;28.494;-16.312;2023-08-12T01:40:07;26.60;67.50
33841;DHT22;20142;28.494;-16.312;2023-08-12T01:45:10;26.70;67.70
33841;DHT22;20142;28.494;-16.312;2023-08-12T01:50:12;26.70;67.60
33841;DHT22;20142;28.494;-16.312;2023-08-12T01:55:14;26.70;67.80
33841;DHT22;20142;28.494;-16.312;2023-08-12T02:00:16;26.70;67.70
33841;DHT22;20142;28.494;-16.312;2023-08-12T02:05:18;26.70;68.10
33841;DHT22;20142;28.494;-16.312;2023-08-12T02:10:19;26.50;69.00
33841;DHT22;20142;28.494;-16.312;2023-08-12T02:15:21;26.60;69.50
33841;DHT22;20142;28.494;-16.312;2023-08-12T02:25:34;26.70;69.30
33841;DHT22;20142;28.494;-16.312;2023-08-12T02:30:36;26.70;69.00
33841;DHT22;20142;28.494;-16.312;2023-08-12T02:35:38;26.60;68.90
33841;DHT22;20142;28.494;-16.312;2023-08-12T02:40:40;26.70;68.90
33841;DHT22;20142;28.494;-16.312;2023-08-12T02:45:41;26.80;68.40
33841;DHT22;20142;28.494;-16.312;2023-08-12T02:50:43;26.90;67.40
33841;DHT22;20142;28.494;-16.312;2023-08-12T02:55:45;27.20;65.90
33841;DHT22;20142;28.494;-16.312;2023-08-12T03:00:47;27.20;64.90
33841;DHT22;20142;28.494;-16.312;2023-08-12T03:05:49;27.50;63.70
33841;DHT22;20142;28.494;-16.312;2023-08-12T03:10:50;27.60;62.50
33841;DHT22;20142;28.494;-16.312;2023-08-12T03:16:02;27.70;62.00
33841;DHT22;20142;28.494;-16.312;2023-08-12T03:21:08;27.60;61.20
33841;DHT22;20142;28.494;-16.312;2023-08-12T03:26:10;27.40;61.10
33841;DHT22;20142;28.494;-16.312;2023-08-12T03:31:12;27.40;61.00
33841;DHT22;20142;28.494;-16.312;2023-08-12T03:36:13;27.50;60.60
33841;DHT22;20142;28.494;-16.312;2023-08-12T03:41:15;27.50;60.30
33841;DHT22;20142;28.494;-16.312;2023-08-12T03:46:17;27.40;60.20
33841;DHT22;20142;28.494;-16.312;2023-08-12T03:51:19;27.40;59.80
33841;DHT22;20142;28.494;-16.312;2023-08-12T03:56:20;27.40;59.60
33841;DHT22;20142;28.494;-16.312;2023-08-12T04:01:22;27.40;59.80
33841;DHT22;20142;28.494;-16.312;2023-08-12T04:06:24;27.40;59.70
33841;DHT22;20142;28.494;-16.312;2023-08-12T04:11:26;27.30;59.60
33841;DHT22;20142;28.494;-16.312;2023-08-12T04:16:27;27.30;59.60
33841;DHT22;20142;28.494;-16.312;2023-08-12T04:21:29;27.40;59.80
33841;DHT22;20142;28.494;-16.312;2023-08-12T04:26:31;27.30;59.50
33841;DHT22;20142;28.494;-16.312;2023-08-12T04:31:33;27.20;59.60
33841;DHT22;20142;28.494;-16.312;2023-08-12T04:36:35;27.20;59.60
33841;DHT22;20142;28.494;-16.312;2023-08-12T04:41:36;27.30;59.50
33841;DHT22;20142;28.494;-16.312;2023-08-12T04:46:39;27.10;59.10
33841;DHT22;20142;28.494;-16.312;2023-08-12T04:51:41;27.20;59.10
33841;DHT22;20142;28.494;-16.312;2023-08-12T04:56:43;27.20;58.90
33841;DHT22;20142;28.494;-16.312;2023-08-12T05:01:44;27.10;58.90
33841;DHT22;20142;28.494;-16.312;2023-08-12T05:06:46;27.10;58.90
33841;DHT22;20142;28.494;-16.312;2023-08-12T05:11:48;27.10;58.60
33841;DHT22;20142;28.494;-16.312;2023-08-12T05:16:49;27.00;57.60
33841;DHT22;20142;28.494;-16.312;2023-08-12T05:21:51;27.00;57.80
33841;DHT22;20142;28.494;-16.312;2023-08-12T05:26:53;27.00;57.50
33841;DHT22;20142;28.494;-16.312;2023-08-12T05:31:54;27.00;56.90
33841;DHT22;20142;28.494;-16.312;2023-08-12T05:36:56;27.10;56.40
33841;DHT22;20142;28.494;-16.312;2023-08-12T05:41:58;27.10;55.80
33841;DHT22;20142;28.494;-16.312;2023-08-12T05:46:59;27.20;55.60
33841;DHT22;20142;28.494;-16.312;2023-08-12T05:52:01;27.40;55.00
33841;DHT22;20142;28.494;-16.312;2023-08-12T05:57:03;27.50;54.40
33841;DHT22;20142;28.494;-16.312;2023-08-12T06:02:05;27.60;53.70
33841;DHT22;20142;28.494;-16.312;2023-08-12T06:07:07;27.70;53.10
33841;DHT22;20142;28.494;-16.312;2023-08-12T06:12:09;27.70;52.60
33841;DHT22;20142;28.494;-16.312;2023-08-12T06:17:10;27.70;52.40
33841;DHT22;20142;28.494;-16.312;2023-08-12T06:22:12;27.70;52.00
33841;DHT22;20142;28.494;-16.312;2023-08-12T06:27:14;27.80;51.70
33841;DHT22;20142;28.494;-16.312;2023-08-12T06:32:15;27.70;51.50
33841;DHT22;20142;28.494;-16.312;2023-08-12T06:37:17;27.60;51.30
33841;DHT22;20142;28.494;-16.312;2023-08-12T06:42:19;27.60;51.30
33841;DHT22;20142;28.494;-16.312;2023-08-12T06:47:20;27.60;51.30
33841;DHT22;20142;28.494;-16.312;2023-08-12T06:52:22;27.50;51.10
33841;DHT22;20142;28.494;-16.312;2023-08-12T06:57:24;27.50;51.10
33841;DHT22;20142;28.494;-16.312;2023-08-12T07:02:26;27.50;52.00
33841;DHT22;20142;28.494;-16.312;2023-08-12T07:07:27;27.50;53.00
33841;DHT22;20142;28.494;-16.312;2023-08-12T07:12:29;27.50;54.20
33841;DHT22;20142;28.494;-16.312;2023-08-12T07:17:30;27.40;55.50
33841;DHT22;20142;28.494;-16.312;2023-08-12T07:22:32;27.50;56.00
33841;DHT22;20142;28.494;-16.312;2023-08-12T07:27:34;27.60;56.90
33841;DHT22;20142;28.494;-16.312;2023-08-12T07:32:37;27.70;57.40
33841;DHT22;20142;28.494;-16.312;2023-08-12T07:37:39;27.90;58.20
33841;DHT22;20142;28.494;-16.312;2023-08-12T07:42:41;28.00;58.40
33841;DHT22;20142;28.494;-16.312;2023-08-12T07:47:42;28.20;58.60
33841;DHT22;20142;28.494;-16.312;2023-08-12T07:52:44;28.30;58.60
33841;DHT22;20142;28.494;-16.312;2023-08-12T07:57:46;28.60;59.20
33841;DHT22;20142;28.494;-16.312;2023-08-12T08:02:48;28.80;59.10
33841;DHT22;20142;28.494;-16.312;2023-08-12T08:07:50;28.90;59.30
33841;DHT22;20142;28.494;-16.312;2023-08-12T08:12:51;29.20;58.70
33841;DHT22;20142;28.494;-16.312;2023-08-12T08:17:54;29.20;58.40
33841;DHT22;20142;28.494;-16.312;2023-08-12T08:22:56;29.40;58.60
33841;DHT22;20142;28.494;-16.312;2023-08-12T08:27:58;29.50;58.30
33841;DHT22;20142;28.494;-16.312;2023-08-12T08:33:00;29.80;58.50
33841;DHT22;20142;28.494;-16.312;2023-08-12T08:38:01;29.90;58.30
33841;DHT22;20142;28.494;-16.312;2023-08-12T08:43:04;30.20;57.90
33841;DHT22;20142;28.494;-16.312;2023-08-12T08:48:09;30.40;57.70
33841;DHT22;20142;28.494;-16.312;2023-08-12T08:53:13;30.80;57.40
33841;DHT22;20142;28.494;-16.312;2023-08-12T08:58:15;30.90;57.10
33841;DHT22;20142;28.494;-16.312;2023-08-12T09:03:17;31.10;57.10
33841;DHT22;20142;28.494;-16.312;2023-08-12T09:08:20;31.10;57.30
33841;DHT22;20142;28.494;-16.312;2023-08-12T09:13:22;31.20;56.90
33841;DHT22;20142;28.494;-16.312;2023-08-12T09:18:25;31.40;57.50
33841;DHT22;20142;28.494;-16.312;2023-08-12T09:23:27;31.40;57.40
33841;DHT22;20142;28.494;-16.312;2023-08-12T09:28:30;31.50;57.20
33841;DHT22;20142;28.494;-16.312;2023-08-12T09:33:31;31.90;56.90
33841;DHT22;20142;28.494;-16.312;2023-08-12T09:38:33;32.20;56.70
33841;DHT22;20142;28.494;-16.312;2023-08-12T09:43:35;32.50;56.20
33841;DHT22;20142;28.494;-16.312;2023-08-12T09:48:43;32.80;55.80
33841;DHT22;20142;28.494;-16.312;2023-08-12T09:53:46;33.10;55.30
33841;DHT22;20142;28.494;-16.312;2023-08-12T09:58:50;33.40;54.80
33841;DHT22;20142;28.494;-16.312;2023-08-12T10:03:51;33.60;54.00
33841;DHT22;20142;28.494;-16.312;2023-08-12T10:08:54;33.80;53.90
33841;DHT22;20142;28.494;-16.312;2023-08-12T10:13:58;34.10;53.50
33841;DHT22;20142;28.494;-16.312;2023-08-12T10:19:02;34.40;52.90
33841;DHT22;20142;28.494;-16.312;2023-08-12T10:24:05;34.50;52.50
33841;DHT22;20142;28.494;-16.312;2023-08-12T10:29:08;34.70;51.50
33841;DHT22;20142;28.494;-16.312;2023-08-12T10:34:30;34.90;50.70
33841;DHT22;20142;28.494;-16.312;2023-08-12T10:39:33;35.20;50.20
33841;DHT22;20142;28.494;-16.312;2023-08-12T10:44:39;35.10;49.70
33841;DHT22;20142;28.494;-16.312;2023-08-12T10:49:53;35.10;50.00
33841;DHT22;20142;28.494;-16.312;2023-08-12T10:54:54;35.20;49.90
33841;DHT22;20142;28.494;-16.312;2023-08-12T10:59:57;35.30;49.80
33841;DHT22;20142;28.494;-16.312;2023-08-12T11:05:09;35.50;49.50
33841;DHT22;20142;28.494;-16.312;2023-08-12T11:10:20;35.60;49.40
33841;DHT22;20142;28.494;-16.312;2023-08-12T11:20:35;35.80;49.30
33841;DHT22;20142;28.494;-16.312;2023-08-12T11:25:40;35.90;48.70
33841;DHT22;20142;28.494;-16.312;2023-08-12T11:30:43;36.10;48.70
33841;DHT22;20142;28.494;-16.312;2023-08-12T11:35:46;36.00;49.30
33841;DHT22;20142;28.494;-16.312;2023-08-12T11:40:50;36.10;49.50
33841;DHT22;20142;28.494;-16.312;2023-08-12T11:45:52;36.20;49.50
33841;DHT22;20142;28.494;-16.312;2023-08-12T11:50:57;36.10;49.50
33841;DHT22;20142;28.494;-16.312;2023-08-12T12:44:39;36.30;51.10
33841;DHT22;20142;28.494;-16.312;2023-08-12T12:49:41;36.40;51.10
33841;DHT22;20142;28.494;-16.312;2023-08-12T12:54:43;36.70;50.20
33841;DHT22;20142;28.494;-16.312;2023-08-12T12:59:45;37.10;49.50
33841;DHT22;20142;28.494;-16.312;2023-08-12T13:04:46;37.10;48.10
33841;DHT22;20142;28.494;-16.312;2023-08-12T13:09:50;37.40;47.30
33841;DHT22;20142;28.494;-16.312;2023-08-12T13:14:52;37.50;46.70
33841;DHT22;20142;28.494;-16.312;2023-08-12T13:19:54;37.60;46.00
33841;DHT22;20142;28.494;-16.312;2023-08-12T13:24:55;37.90;45.30
33841;DHT22;20142;28.494;-16.312;2023-08-12T13:29:57;38.20;45.20
33841;DHT22;20142;28.494;-16.312;2023-08-12T13:34:59;38.40;44.90
33841;DHT22;20142;28.494;-16.312;2023-08-12T13:40:00;38.40;44.20
33841;DHT22;20142;28.494;-16.312;2023-08-12T13:45:02;38.40;44.00
33841;DHT22;20142;28.494;-16.312;2023-08-12T13:50:04;38.80;43.60
33841;DHT22;20142;28.494;-16.312;2023-08-12T13:55:07;38.90;42.80
33841;DHT22;20142;28.494;-16.312;2023-08-12T14:00:10;39.10;42.30
33841;DHT22;20142;28.494;-16.312;2023-08-12T14:05:14;39.20;42.50
33841;DHT22;20142;28.494;-16.312;2023-08-12T14:10:16;39.60;42.80
33841;DHT22;20142;28.494;-16.312;2023-08-12T14:15:17;40.00;43.10
33841;DHT22;20142;28.494;-16.312;2023-08-12T14:25:09;42.20;41.90
33841;DHT22;20142;28.494;-16.312;2023-08-12T14:30:12;43.70;40.10
33841;DHT22;20142;28.494;-16.312;2023-08-12T14:35:14;45.00;37.60
33841;DHT22;20142;28.494;-16.312;2023-08-12T14:40:16;45.90;35.50
33841;DHT22;20142;28.494;-16.312;2023-08-12T14:45:18;46.50;33.80
33841;DHT22;20142;28.494;-16.312;2023-08-12T14:50:19;47.50;32.40
33841;DHT22;20142;28.494;-16.312;2023-08-12T14:55:21;48.10;31.20
33841;DHT22;20142;28.494;-16.312;2023-08-12T15:00:23;48.30;30.00
33841;DHT22;20142;28.494;-16.312;2023-08-12T15:05:25;48.90;29.50
33841;DHT22;20142;28.494;-16.312;2023-08-12T15:10:27;50.00;29.10
33841;DHT22;20142;28.494;-16.312;2023-08-12T15:15:30;50.90;28.20
33841;DHT22;20142;28.494;-16.312;2023-08-12T15:20:32;51.60;27.40
33841;DHT22;20142;28.494;-16.312;2023-08-12T15:25:34;52.10;27.30
33841;DHT22;20142;28.494;-16.312;2023-08-12T15:30:35;51.80;27.20
33841;DHT22;20142;28.494;-16.312;2023-08-12T15:35:37;51.80;27.20
33841;DHT22;20142;28.494;-16.312;2023-08-12T15:40:39;51.60;26.90
33841;DHT22;20142;28.494;-16.312;2023-08-12T15:45:41;52.40;26.90
33841;DHT22;20142;28.494;-16.312;2023-08-12T15:50:44;52.70;26.60
33841;DHT22;20142;28.494;-16.312;2023-08-12T15:55:46;53.20;26.30
33841;DHT22;20142;28.494;-16.312;2023-08-12T16:00:48;53.20;26.00
33841;DHT22;20142;28.494;-16.312;2023-08-12T16:05:49;53.20;25.70
33841;DHT22;20142;28.494;-16.312;2023-08-12T16:10:51;53.50;25.80
33841;DHT22;20142;28.494;-16.312;2023-08-12T16:15:53;53.70;25.80
33841;DHT22;20142;28.494;-16.312;2023-08-12T16:20:55;54.10;25.70
33841;DHT22;20142;28.494;-16.312;2023-08-12T16:25:59;54.60;24.80
33841;DHT22;20142;28.494;-16.312;2023-08-12T16:31:01;54.50;24.60
33841;DHT22;20142;28.494;-16.312;2023-08-12T16:36:04;55.00;24.30
33841;DHT22;20142;28.494;-16.312;2023-08-12T16:41:06;54.70;23.60
33841;DHT22;20142;28.494;-16.312;2023-08-12T16:46:08;54.40;23.80
33841;DHT22;20142;28.494;-16.312;2023-08-12T16:51:09;54.50;24.00
33841;DHT22;20142;28.494;-16.312;2023-08-12T16:56:11;54.40;24.20
33841;DHT22;20142;28.494;-16.312;2023-08-12T17:01:13;54.20;23.70
33841;DHT22;20142;28.494;-16.312;2023-08-12T17:06:15;53.90;23.70
33841;DHT22;20142;28.494;-16.312;2023-08-12T17:11:17;53.70;23.70
33841;DHT22;20142;28.494;-16.312;2023-08-12T17:16:18;53.10;23.80
33841;DHT22;20142;28.494;-16.312;2023-08-12T17:21:20;52.40;24.60
33841;DHT22;20142;28.494;-16.312;2023-08-12T17:26:22;52.00;25.30
33841;DHT22;20142;28.494;-16.312;2023-08-12T17:31:23;52.20;25.60
33841;DHT22;20142;28.494;-16.312;2023-08-12T17:36:25;52.00;25.30
33841;DHT22;20142;28.494;-16.312;2023-08-12T17:41:27;51.60;25.50
33841;DHT22;20142;28.494;-16.312;2023-08-12T17:46:28;51.20;25.60
33841;DHT22;20142;28.494;-16.312;2023-08-12T17:51:30;51.20;25.50
33841;DHT22;20142;28.494;-16.312;2023-08-12T17:56:32;51.10;25.80
33841;DHT22;20142;28.494;-16.312;2023-08-12T18:01:33;50.80;25.80
33841;DHT22;20142;28.494;-16.312;2023-08-12T18:06:35;50.40;25.80
33841;DHT22;20142;28.494;-16.312;2023-08-12T18:11:37;50.20;25.70
33841;DHT22;20142;28.494;-16.312;2023-08-12T18:16:39;49.40;26.30
33841;DHT22;20142;28.494;-16.312;2023-08-12T18:21:42;48.30;27.00
33841;DHT22;20142;28.494;-16.312;2023-08-12T18:26:43;47.30;28.00
33841;DHT22;20142;28.494;-16.312;2023-08-12T18:31:45;46.70;28.70
33841;DHT22;20142;28.494;-16.312;2023-08-12T18:36:46;46.50;29.60
33841;DHT22;20142;28.494;-16.312;2023-08-12T18:41:48;45.40;29.90
33841;DHT22;20142;28.494;-16.312;2023-08-12T18:46:50;43.70;31.00
33841;DHT22;20142;28.494;-16.312;2023-08-12T18:51:51;42.40;32.80
33841;DHT22;20142;28.494;-16.312;2023-08-12T18:56:53;41.10;34.40
33841;DHT22;20142;28.494;-16.312;2023-08-12T19:01:55;40.10;35.60
33841;DHT22;20142;28.494;-16.312;2023-08-12T19:06:58;39.20;36.90
33841;DHT22;20142;28.494;-16.312;2023-08-12T19:12:00;38.30;38.00
33841;DHT22;20142;28.494;-16.312;2023-08-12T19:17:02;37.10;39.10
33841;DHT22;20142;28.494;-16.312;2023-08-12T19:22:04;35.90;40.50
33841;DHT22;20142;28.494;-16.312;2023-08-12T19:27:07;35.10;42.10
33841;DHT22;20142;28.494;-16.312;2023-08-12T19:32:11;34.20;44.30
33841;DHT22;20142;28.494;-16.312;2023-08-12T19:37:13;33.60;45.60
33841;DHT22;20142;28.494;-16.312;2023-08-12T19:42:14;33.20;46.40
33841;DHT22;20142;28.494;-16.312;2023-08-12T19:47:16;33.00;47.30
33841;DHT22;20142;28.494;-16.312;2023-08-12T19:52:18;32.90;47.60
33841;DHT22;20142;28.494;-16.312;2023-08-12T19:57:20;32.50;48.10
33841;DHT22;20142;28.494;-16.312;2023-08-12T20:02:21;32.10;48.90
33841;DHT22;20142;28.494;-16.312;2023-08-12T20:07:23;31.80;49.70
33841;DHT22;20142;28.494;-16.312;2023-08-12T20:12:25;31.40;51.70
33841;DHT22;20142;28.494;-16.312;2023-08-12T20:17:26;30.90;52.50
33841;DHT22;20142;28.494;-16.312;2023-08-12T20:22:28;30.80;53.70
33841;DHT22;20142;28.494;-16.312;2023-08-12T20:27:30;30.70;53.80
33841;DHT22;20142;28.494;-16.312;2023-08-12T20:32:33;30.50;54.40
33841;DHT22;20142;28.494;-16.312;2023-08-12T20:37:35;30.40;54.70
33841;DHT22;20142;28.494;-16.312;2023-08-12T20:42:36;30.20;55.40
33841;DHT22;20142;28.494;-16.312;2023-08-12T20:47:38;30.00;56.00
33841;DHT22;20142;28.494;-16.312;2023-08-12T20:52:42;30.00;56.50
33841;DHT22;20142;28.494;-16.312;2023-08-12T20:57:43;29.90;56.70
33841;DHT22;20142;28.494;-16.312;2023-08-12T21:02:47;29.80;57.10
33841;DHT22;20142;28.494;-16.312;2023-08-12T21:07:49;29.60;58.30
33841;DHT22;20142;28.494;-16.312;2023-08-12T21:12:50;29.50;58.70
33841;DHT22;20142;28.494;-16.312;2023-08-12T21:17:53;29.30;59.20
33841;DHT22;20142;28.494;-16.312;2023-08-12T21:22:55;29.20;59.60
33841;DHT22;20142;28.494;-16.312;2023-08-12T21:27:57;29.10;60.90
33841;DHT22;20142;28.494;-16.312;2023-08-12T21:32:58;29.10;60.70
33841;DHT22;20142;28.494;-16.312;2023-08-12T21:38:00;28.90;61.50
33841;DHT22;20142;28.494;-16.312;2023-08-12T21:43:02;28.80;62.20
33841;DHT22;20142;28.494;-16.312;2023-08-12T21:48:04;28.60;62.40
33841;DHT22;20142;28.494;-16.312;2023-08-12T21:53:06;28.50;62.60
33841;DHT22;20142;28.494;-16.312;2023-08-12T21:58:08;28.30;63.50
33841;DHT22;20142;28.494;-16.312;2023-08-12T22:03:09;28.30;64.00
33841;DHT22;20142;28.494;-16.312;2023-08-12T22:08:11;28.00;65.00
33841;DHT22;20142;28.494;-16.312;2023-08-12T22:13:13;28.00;65.30
33841;DHT22;20142;28.494;-16.312;2023-08-12T22:18:14;27.90;65.50
33841;DHT22;20142;28.494;-16.312;2023-08-12T22:23:16;27.80;65.80
33841;DHT22;20142;28.494;-16.312;2023-08-12T22:28:18;27.90;66.70
33841;DHT22;20142;28.494;-16.312;2023-08-12T22:33:20;28.00;66.40
33841;DHT22;20142;28.494;-16.312;2023-08-12T22:38:22;27.90;66.10
33841;DHT22;20142;28.494;-16.312;2023-08-12T22:43:24;27.80;66.20
33841;DHT22;20142;28.494;-16.312;2023-08-12T22:48:26;27.80;66.20
33841;DHT22;20142;28.494;-16.312;2023-08-12T22:53:28;28.00;65.50
33841;DHT22;20142;28.494;-16.312;2023-08-12T22:58:29;27.90;65.20
33841;DHT22;20142;28.494;-16.312;2023-08-12T23:03:31;27.80;65.50
33841;DHT22;20142;28.494;-16.312;2023-08-12T23:08:33;27.80;66.10
33841;DHT22;20142;28.494;-16.312;2023-08-12T23:13:35;27.90;65.50
33841;DHT22;20142;28.494;-16.312;2023-08-12T23:18:36;28.00;66.80
33841;DHT22;20142;28.494;-16.312;2023-08-12T23:23:39;28.00;66.30
33841;DHT22;20142;28.494;-16.312;2023-08-12T23:28:41;28.10;66.10
33841;DHT22;20142;28.494;-16.312;2023-08-12T23:33:42;28.00;65.90
33841;DHT22;20142;28.494;-16.312;2023-08-12T23:38:44;27.90;66.50
33841;DHT22;20142;28.494;-16.312;2023-08-12T23:43:46;28.30;67.20
33841;DHT22;20142;28.494;-16.312;2023-08-12T23:48:47;28.70;67.00
33841;DHT22;20142;28.494;-16.312;2023-08-12T23:53:50;28.90;66.50
33841;DHT22;20142;28.494;-16.312;2023-08-12T23:58:51;29.10;65.20
